sensor_id;sensor_type;location;lat;lon;timestamp;P1;durP1;ratioP1;P2;durP2;ratioP2
62102;SDS011;48077;48.104;11.702;2023-07-29T00:01:02;102.60;;;91.80;;
62102;SDS011;48077;48.104;11.702;2023-07-29T00:07:38;113.22;;;100.88;;
62102;SDS011;48077;48.104;11.702;2023-07-29T00:10:02;108.43;;;96.93;;
62102;SDS011;48077;48.104;11.702;2023-07-29T00:12:26;103.78;;;93.05;;
62102;SDS011;48077;48.104;11.702;2023-07-29T00:14:49;102.53;;;91.82;;
62102;SDS011;48077;48.104;11.702;2023-07-29T00:17:12;103.13;;;92.57;;
62102;SDS011;48077;48.104;11.702;2023-07-29T00:19:36;103.90;;;92.85;;
62102;SDS011;48077;48.104;11.702;2023-07-29T00:21:59;98.28;;;88.18;;
62102;SDS011;48077;48.104;11.702;2023-07-29T00:24:22;98.78;;;88.65;;
62102;SDS011;48077;48.104;11.702;2023-07-29T00:26:46;95.97;;;86.25;;
62102;SDS011;48077;48.104;11.702;2023-07-29T00:29:09;98.00;;;87.93;;
62102;SDS011;48077;48.104;11.702;2023-07-29T00:31:32;102.35;;;91.72;;
62102;SDS011;48077;48.104;11.702;2023-07-29T00:33:56;98.45;;;88.47;;
62102;SDS011;48077;48.104;11.702;2023-07-29T00:36:21;98.63;;;88.68;;
62102;SDS011;48077;48.104;11.702;2023-07-29T00:38:44;96.15;;;86.32;;
62102;SDS011;48077;48.104;11.702;2023-07-29T00:41:08;96.72;;;86.80;;
62102;SDS011;48077;48.104;11.702;2023-07-29T00:43:36;102.00;;;91.38;;
62102;SDS011;48077;48.104;11.702;2023-07-29T00:45:59;96.40;;;86.78;;
62102;SDS011;48077;48.104;11.702;2023-07-29T00:48:24;100.53;;;90.22;;
62102;SDS011;48077;48.104;11.702;2023-07-29T00:50:48;99.10;;;88.97;;
62102;SDS011;48077;48.104;11.702;2023-07-29T00:53:12;96.13;;;86.40;;
62102;SDS011;48077;48.104;11.702;2023-07-29T00:55:36;95.65;;;86.25;;
62102;SDS011;48077;48.104;11.702;2023-07-29T00:58:00;99.95;;;89.80;;
62102;SDS011;48077;48.104;11.702;2023-07-29T01:00:23;101.82;;;91.18;;
62102;SDS011;48077;48.104;11.702;2023-07-29T01:02:47;99.68;;;89.53;;
62102;SDS011;48077;48.104;11.702;2023-07-29T01:05:11;99.07;;;89.03;;
62102;SDS011;48077;48.104;11.702;2023-07-29T01:07:59;99.93;;;89.75;;
62102;SDS011;48077;48.104;11.702;2023-07-29T01:13:17;101.82;;;91.10;;
62102;SDS011;48077;48.104;11.702;2023-07-29T01:18:22;102.60;;;92.10;;
62102;SDS011;48077;48.104;11.702;2023-07-29T01:20:54;108.30;;;96.70;;
62102;SDS011;48077;48.104;11.702;2023-07-29T01:23:26;108.72;;;97.28;;
62102;SDS011;48077;48.104;11.702;2023-07-29T01:25:53;102.30;;;91.63;;
62102;SDS011;48077;48.104;11.702;2023-07-29T01:28:17;103.63;;;92.90;;
62102;SDS011;48077;48.104;11.702;2023-07-29T01:30:40;107.07;;;95.65;;
62102;SDS011;48077;48.104;11.702;2023-07-29T01:33:14;103.03;;;92.43;;
62102;SDS011;48077;48.104;11.702;2023-07-29T01:36:00;106.10;;;94.93;;
62102;SDS011;48077;48.104;11.702;2023-07-29T01:38:29;104.15;;;93.38;;
62102;SDS011;48077;48.104;11.702;2023-07-29T01:40:57;105.50;;;94.50;;
62102;SDS011;48077;48.104;11.702;2023-07-29T01:43:24;108.00;;;96.47;;
62102;SDS011;48077;48.104;11.702;2023-07-29T01:45:49;103.38;;;92.57;;
62102;SDS011;48077;48.104;11.702;2023-07-29T01:48:12;102.93;;;92.22;;
62102;SDS011;48077;48.104;11.702;2023-07-29T01:50:36;104.57;;;93.43;;
62102;SDS011;48077;48.104;11.702;2023-07-29T01:52:59;104.40;;;93.20;;
62102;SDS011;48077;48.104;11.702;2023-07-29T01:55:23;100.18;;;90.07;;
62102;SDS011;48077;48.104;11.702;2023-07-29T01:57:46;105.47;;;94.40;;
62102;SDS011;48077;48.104;11.702;2023-07-29T02:00:10;103.75;;;93.10;;
62102;SDS011;48077;48.104;11.702;2023-07-29T02:02:33;102.63;;;92.10;;
62102;SDS011;48077;48.104;11.702;2023-07-29T02:04:57;103.88;;;92.90;;
62102;SDS011;48077;48.104;11.702;2023-07-29T02:07:20;104.38;;;93.38;;
62102;SDS011;48077;48.104;11.702;2023-07-29T02:09:43;104.50;;;93.57;;
62102;SDS011;48077;48.104;11.702;2023-07-29T02:12:07;102.90;;;92.40;;
62102;SDS011;48077;48.104;11.702;2023-07-29T02:14:30;104.57;;;93.53;;
62102;SDS011;48077;48.104;11.702;2023-07-29T02:16:54;105.75;;;94.50;;
62102;SDS011;48077;48.104;11.702;2023-07-29T02:19:17;105.90;;;94.93;;
62102;SDS011;48077;48.104;11.702;2023-07-29T02:21:40;105.93;;;94.82;;
62102;SDS011;48077;48.104;11.702;2023-07-29T02:24:04;104.68;;;93.72;;
62102;SDS011;48077;48.104;11.702;2023-07-29T02:26:27;105.90;;;94.78;;
62102;SDS011;48077;48.104;11.702;2023-07-29T02:28:50;108.68;;;97.15;;
62102;SDS011;48077;48.104;11.702;2023-07-29T02:31:24;106.63;;;95.20;;
62102;SDS011;48077;48.104;11.702;2023-07-29T02:33:48;110.50;;;98.78;;
62102;SDS011;48077;48.104;11.702;2023-07-29T02:36:12;110.68;;;98.75;;
62102;SDS011;48077;48.104;11.702;2023-07-29T02:38:36;104.80;;;93.93;;
62102;SDS011;48077;48.104;11.702;2023-07-29T02:41:00;105.03;;;94.03;;
62102;SDS011;48077;48.104;11.702;2023-07-29T02:43:23;110.55;;;98.85;;
62102;SDS011;48077;48.104;11.702;2023-07-29T02:45:46;109.85;;;97.90;;
62102;SDS011;48077;48.104;11.702;2023-07-29T02:48:10;108.07;;;96.63;;
62102;SDS011;48077;48.104;11.702;2023-07-29T02:50:34;107.82;;;96.50;;
62102;SDS011;48077;48.104;11.702;2023-07-29T02:52:57;109.20;;;97.45;;
62102;SDS011;48077;48.104;11.702;2023-07-29T02:55:21;108.50;;;97.00;;
62102;SDS011;48077;48.104;11.702;2023-07-29T02:57:44;105.20;;;94.13;;
62102;SDS011;48077;48.104;11.702;2023-07-29T03:00:07;111.15;;;99.10;;
62102;SDS011;48077;48.104;11.702;2023-07-29T03:02:31;108.82;;;97.35;;
62102;SDS011;48077;48.104;11.702;2023-07-29T03:04:55;109.43;;;97.93;;
62102;SDS011;48077;48.104;11.702;2023-07-29T03:07:18;109.97;;;98.20;;
62102;SDS011;48077;48.104;11.702;2023-07-29T03:09:42;108.97;;;97.50;;
62102;SDS011;48077;48.104;11.702;2023-07-29T03:12:07;111.43;;;99.72;;
62102;SDS011;48077;48.104;11.702;2023-07-29T03:14:31;106.38;;;95.30;;
62102;SDS011;48077;48.104;11.702;2023-07-29T03:16:54;109.50;;;97.85;;
62102;SDS011;48077;48.104;11.702;2023-07-29T03:19:17;108.13;;;96.65;;
62102;SDS011;48077;48.104;11.702;2023-07-29T03:21:41;109.43;;;97.45;;
62102;SDS011;48077;48.104;11.702;2023-07-29T03:24:04;106.15;;;95.10;;
62102;SDS011;48077;48.104;11.702;2023-07-29T03:26:27;110.60;;;98.90;;
62102;SDS011;48077;48.104;11.702;2023-07-29T03:28:51;109.70;;;98.07;;
62102;SDS011;48077;48.104;11.702;2023-07-29T03:31:14;110.60;;;98.82;;
62102;SDS011;48077;48.104;11.702;2023-07-29T03:33:38;111.55;;;99.50;;
62102;SDS011;48077;48.104;11.702;2023-07-29T03:36:01;112.90;;;100.82;;
62102;SDS011;48077;48.104;11.702;2023-07-29T03:38:24;113.65;;;101.28;;
62102;SDS011;48077;48.104;11.702;2023-07-29T03:40:48;111.30;;;99.00;;
62102;SDS011;48077;48.104;11.702;2023-07-29T03:43:11;111.70;;;99.78;;
62102;SDS011;48077;48.104;11.702;2023-07-29T03:45:35;115.30;;;102.95;;
62102;SDS011;48077;48.104;11.702;2023-07-29T03:47:59;112.22;;;100.28;;
62102;SDS011;48077;48.104;11.702;2023-07-29T03:50:23;109.85;;;98.15;;
62102;SDS011;48077;48.104;11.702;2023-07-29T03:52:47;109.75;;;98.13;;
62102;SDS011;48077;48.104;11.702;2023-07-29T03:55:10;109.50;;;97.93;;
62102;SDS011;48077;48.104;11.702;2023-07-29T03:57:33;112.88;;;100.85;;
62102;SDS011;48077;48.104;11.702;2023-07-29T03:59:57;111.82;;;99.90;;
62102;SDS011;48077;48.104;11.702;2023-07-29T04:02:20;109.35;;;97.90;;
62102;SDS011;48077;48.104;11.702;2023-07-29T04:04:43;109.72;;;98.10;;
62102;SDS011;48077;48.104;11.702;2023-07-29T04:07:10;109.30;;;97.78;;
62102;SDS011;48077;48.104;11.702;2023-07-29T04:09:33;109.00;;;97.45;;
62102;SDS011;48077;48.104;11.702;2023-07-29T04:11:57;109.60;;;97.75;;
62102;SDS011;48077;48.104;11.702;2023-07-29T04:14:20;112.00;;;99.60;;
62102;SDS011;48077;48.104;11.702;2023-07-29T04:16:43;108.47;;;96.93;;
62102;SDS011;48077;48.104;11.702;2023-07-29T04:19:08;107.88;;;96.57;;
62102;SDS011;48077;48.104;11.702;2023-07-29T04:21:31;104.95;;;94.07;;
62102;SDS011;48077;48.104;11.702;2023-07-29T04:23:55;108.68;;;97.28;;
62102;SDS011;48077;48.104;11.702;2023-07-29T04:26:18;112.35;;;100.40;;
62102;SDS011;48077;48.104;11.702;2023-07-29T04:28:41;108.07;;;96.63;;
62102;SDS011;48077;48.104;11.702;2023-07-29T04:31:05;108.72;;;97.45;;
62102;SDS011;48077;48.104;11.702;2023-07-29T04:33:29;105.53;;;94.82;;
62102;SDS011;48077;48.104;11.702;2023-07-29T04:35:53;104.90;;;94.13;;
62102;SDS011;48077;48.104;11.702;2023-07-29T04:38:16;104.25;;;93.70;;
62102;SDS011;48077;48.104;11.702;2023-07-29T04:40:39;105.32;;;94.43;;
62102;SDS011;48077;48.104;11.702;2023-07-29T04:43:05;106.85;;;95.40;;
62102;SDS011;48077;48.104;11.702;2023-07-29T04:45:29;107.05;;;96.13;;
62102;SDS011;48077;48.104;11.702;2023-07-29T04:47:52;107.50;;;96.43;;
62102;SDS011;48077;48.104;11.702;2023-07-29T04:50:16;103.85;;;93.18;;
62102;SDS011;48077;48.104;11.702;2023-07-29T04:52:39;106.75;;;95.70;;
62102;SDS011;48077;48.104;11.702;2023-07-29T04:55:02;101.88;;;91.57;;
62102;SDS011;48077;48.104;11.702;2023-07-29T04:57:26;103.70;;;93.20;;
62102;SDS011;48077;48.104;11.702;2023-07-29T04:59:49;106.32;;;95.25;;
62102;SDS011;48077;48.104;11.702;2023-07-29T05:02:13;106.85;;;95.65;;
62102;SDS011;48077;48.104;11.702;2023-07-29T05:04:36;104.47;;;93.70;;
62102;SDS011;48077;48.104;11.702;2023-07-29T05:07:00;102.10;;;91.68;;
62102;SDS011;48077;48.104;11.702;2023-07-29T05:09:23;99.25;;;89.40;;
62102;SDS011;48077;48.104;11.702;2023-07-29T05:11:46;101.63;;;91.47;;
62102;SDS011;48077;48.104;11.702;2023-07-29T05:14:10;99.60;;;89.55;;
62102;SDS011;48077;48.104;11.702;2023-07-29T05:16:34;98.60;;;88.75;;
62102;SDS011;48077;48.104;11.702;2023-07-29T05:18:57;99.28;;;89.30;;
62102;SDS011;48077;48.104;11.702;2023-07-29T05:21:21;99.15;;;89.22;;
62102;SDS011;48077;48.104;11.702;2023-07-29T05:23:44;97.72;;;88.07;;
62102;SDS011;48077;48.104;11.702;2023-07-29T05:26:07;99.60;;;89.45;;
62102;SDS011;48077;48.104;11.702;2023-07-29T05:28:31;96.72;;;87.03;;
62102;SDS011;48077;48.104;11.702;2023-07-29T05:30:54;95.63;;;85.97;;
62102;SDS011;48077;48.104;11.702;2023-07-29T05:33:17;94.22;;;84.85;;
62102;SDS011;48077;48.104;11.702;2023-07-29T05:35:41;92.10;;;83.10;;
62102;SDS011;48077;48.104;11.702;2023-07-29T05:38:04;96.75;;;86.97;;
62102;SDS011;48077;48.104;11.702;2023-07-29T05:40:29;95.50;;;86.07;;
62102;SDS011;48077;48.104;11.702;2023-07-29T05:42:53;86.38;;;78.07;;
62102;SDS011;48077;48.104;11.702;2023-07-29T05:45:16;93.85;;;84.13;;
62102;SDS011;48077;48.104;11.702;2023-07-29T05:47:39;88.25;;;79.70;;
62102;SDS011;48077;48.104;11.702;2023-07-29T05:50:03;86.50;;;78.20;;
62102;SDS011;48077;48.104;11.702;2023-07-29T05:52:27;85.20;;;76.97;;
62102;SDS011;48077;48.104;11.702;2023-07-29T05:54:50;84.88;;;76.80;;
62102;SDS011;48077;48.104;11.702;2023-07-29T05:57:14;86.82;;;78.55;;
62102;SDS011;48077;48.104;11.702;2023-07-29T05:59:39;88.18;;;79.68;;
62102;SDS011;48077;48.104;11.702;2023-07-29T06:02:03;82.30;;;74.57;;
62102;SDS011;48077;48.104;11.702;2023-07-29T06:04:26;81.07;;;73.47;;
62102;SDS011;48077;48.104;11.702;2023-07-29T06:06:50;81.15;;;73.43;;
62102;SDS011;48077;48.104;11.702;2023-07-29T06:09:13;83.88;;;75.93;;
62102;SDS011;48077;48.104;11.702;2023-07-29T06:11:36;85.30;;;77.05;;
62102;SDS011;48077;48.104;11.702;2023-07-29T06:14:00;81.30;;;73.85;;
62102;SDS011;48077;48.104;11.702;2023-07-29T06:16:23;77.00;;;69.95;;
62102;SDS011;48077;48.104;11.702;2023-07-29T06:18:47;86.78;;;78.28;;
62102;SDS011;48077;48.104;11.702;2023-07-29T06:21:10;83.97;;;76.07;;
62102;SDS011;48077;48.104;11.702;2023-07-29T06:23:39;83.45;;;75.60;;
62102;SDS011;48077;48.104;11.702;2023-07-29T06:26:06;86.93;;;78.50;;
62102;SDS011;48077;48.104;11.702;2023-07-29T06:28:29;83.63;;;75.45;;
62102;SDS011;48077;48.104;11.702;2023-07-29T06:30:53;83.20;;;75.15;;
62102;SDS011;48077;48.104;11.702;2023-07-29T06:33:16;80.80;;;73.20;;
62102;SDS011;48077;48.104;11.702;2023-07-29T06:35:41;83.30;;;75.43;;
62102;SDS011;48077;48.104;11.702;2023-07-29T06:38:06;83.10;;;74.97;;
62102;SDS011;48077;48.104;11.702;2023-07-29T06:40:29;79.80;;;72.30;;
62102;SDS011;48077;48.104;11.702;2023-07-29T06:42:53;79.25;;;71.95;;
62102;SDS011;48077;48.104;11.702;2023-07-29T06:45:16;83.03;;;75.15;;
62102;SDS011;48077;48.104;11.702;2023-07-29T06:47:40;84.05;;;75.90;;
62102;SDS011;48077;48.104;11.702;2023-07-29T06:50:03;81.18;;;73.47;;
62102;SDS011;48077;48.104;11.702;2023-07-29T06:52:26;80.20;;;72.72;;
62102;SDS011;48077;48.104;11.702;2023-07-29T06:54:50;77.15;;;70.15;;
62102;SDS011;48077;48.104;11.702;2023-07-29T06:57:13;81.03;;;73.43;;
62102;SDS011;48077;48.104;11.702;2023-07-29T06:59:37;78.20;;;70.82;;
62102;SDS011;48077;48.104;11.702;2023-07-29T07:02:00;81.90;;;74.10;;
62102;SDS011;48077;48.104;11.702;2023-07-29T07:04:24;79.70;;;72.32;;
62102;SDS011;48077;48.104;11.702;2023-07-29T07:06:48;79.32;;;71.93;;
62102;SDS011;48077;48.104;11.702;2023-07-29T07:09:11;77.97;;;70.68;;
62102;SDS011;48077;48.104;11.702;2023-07-29T07:11:35;78.07;;;70.88;;
62102;SDS011;48077;48.104;11.702;2023-07-29T07:13:58;83.25;;;75.10;;
62102;SDS011;48077;48.104;11.702;2023-07-29T07:16:21;85.97;;;77.38;;
62102;SDS011;48077;48.104;11.702;2023-07-29T07:18:45;81.63;;;73.85;;
62102;SDS011;48077;48.104;11.702;2023-07-29T07:21:08;85.07;;;76.70;;
62102;SDS011;48077;48.104;11.702;2023-07-29T07:23:32;81.28;;;73.60;;
62102;SDS011;48077;48.104;11.702;2023-07-29T07:25:55;82.70;;;74.78;;
62102;SDS011;48077;48.104;11.702;2023-07-29T07:28:18;82.05;;;74.20;;
62102;SDS011;48077;48.104;11.702;2023-07-29T07:30:42;85.90;;;77.53;;
62102;SDS011;48077;48.104;11.702;2023-07-29T07:33:05;89.00;;;80.05;;
62102;SDS011;48077;48.104;11.702;2023-07-29T07:35:29;83.55;;;75.60;;
62102;SDS011;48077;48.104;11.702;2023-07-29T07:37:52;87.05;;;78.80;;
62102;SDS011;48077;48.104;11.702;2023-07-29T07:40:15;82.45;;;74.45;;
62102;SDS011;48077;48.104;11.702;2023-07-29T07:42:39;80.93;;;73.47;;
62102;SDS011;48077;48.104;11.702;2023-07-29T07:45:05;83.57;;;75.47;;
62102;SDS011;48077;48.104;11.702;2023-07-29T07:47:28;82.95;;;74.90;;
62102;SDS011;48077;48.104;11.702;2023-07-29T07:49:52;78.90;;;71.63;;
62102;SDS011;48077;48.104;11.702;2023-07-29T07:52:15;85.97;;;77.55;;
62102;SDS011;48077;48.104;11.702;2023-07-29T07:54:38;84.65;;;76.32;;
62102;SDS011;48077;48.104;11.702;2023-07-29T07:57:02;84.47;;;76.43;;
62102;SDS011;48077;48.104;11.702;2023-07-29T07:59:25;82.57;;;74.70;;
62102;SDS011;48077;48.104;11.702;2023-07-29T08:01:49;84.50;;;76.38;;
62102;SDS011;48077;48.104;11.702;2023-07-29T08:04:12;84.35;;;76.10;;
62102;SDS011;48077;48.104;11.702;2023-07-29T08:06:35;82.10;;;74.43;;
62102;SDS011;48077;48.104;11.702;2023-07-29T08:08:59;82.57;;;74.78;;
62102;SDS011;48077;48.104;11.702;2023-07-29T08:11:22;83.80;;;75.60;;
62102;SDS011;48077;48.104;11.702;2023-07-29T08:13:46;86.03;;;77.65;;
62102;SDS011;48077;48.104;11.702;2023-07-29T08:16:09;84.95;;;76.53;;
62102;SDS011;48077;48.104;11.702;2023-07-29T08:18:32;79.05;;;71.57;;
62102;SDS011;48077;48.104;11.702;2023-07-29T08:20:59;79.45;;;71.97;;
62102;SDS011;48077;48.104;11.702;2023-07-29T08:23:26;79.47;;;71.80;;
62102;SDS011;48077;48.104;11.702;2023-07-29T08:25:53;74.07;;;67.22;;
62102;SDS011;48077;48.104;11.702;2023-07-29T08:28:19;78.85;;;71.35;;
62102;SDS011;48077;48.104;11.702;2023-07-29T08:30:42;73.10;;;66.55;;
62102;SDS011;48077;48.104;11.702;2023-07-29T08:33:06;75.57;;;68.63;;
62102;SDS011;48077;48.104;11.702;2023-07-29T08:35:29;73.50;;;66.93;;
62102;SDS011;48077;48.104;11.702;2023-07-29T08:37:52;72.35;;;65.60;;
62102;SDS011;48077;48.104;11.702;2023-07-29T08:40:16;70.72;;;64.32;;
62102;SDS011;48077;48.104;11.702;2023-07-29T08:42:40;65.88;;;60.05;;
62102;SDS011;48077;48.104;11.702;2023-07-29T08:45:06;66.32;;;60.50;;
62102;SDS011;48077;48.104;11.702;2023-07-29T08:47:31;68.15;;;61.97;;
62102;SDS011;48077;48.104;11.702;2023-07-29T08:49:57;62.22;;;56.92;;
62102;SDS011;48077;48.104;11.702;2023-07-29T08:52:23;60.47;;;55.28;;
62102;SDS011;48077;48.104;11.702;2023-07-29T08:54:48;55.13;;;50.45;;
62102;SDS011;48077;48.104;11.702;2023-07-29T08:57:11;56.33;;;51.38;;
62102;SDS011;48077;48.104;11.702;2023-07-29T08:59:36;61.00;;;55.85;;
62102;SDS011;48077;48.104;11.702;2023-07-29T09:02:00;60.97;;;55.78;;
62102;SDS011;48077;48.104;11.702;2023-07-29T09:04:24;55.63;;;50.90;;
62102;SDS011;48077;48.104;11.702;2023-07-29T09:06:48;53.17;;;48.78;;
62102;SDS011;48077;48.104;11.702;2023-07-29T09:09:13;56.85;;;51.90;;
62102;SDS011;48077;48.104;11.702;2023-07-29T09:11:36;59.80;;;54.80;;
62102;SDS011;48077;48.104;11.702;2023-07-29T09:14:00;64.40;;;58.50;;
62102;SDS011;48077;48.104;11.702;2023-07-29T09:16:23;55.78;;;51.03;;
62102;SDS011;48077;48.104;11.702;2023-07-29T09:18:48;55.03;;;50.35;;
62102;SDS011;48077;48.104;11.702;2023-07-29T09:21:13;57.55;;;52.63;;
62102;SDS011;48077;48.104;11.702;2023-07-29T09:23:39;52.90;;;48.45;;
62102;SDS011;48077;48.104;11.702;2023-07-29T09:26:04;51.97;;;47.67;;
62102;SDS011;48077;48.104;11.702;2023-07-29T09:28:27;53.08;;;48.50;;
62102;SDS011;48077;48.104;11.702;2023-07-29T09:30:56;51.42;;;46.97;;
62102;SDS011;48077;48.104;11.702;2023-07-29T09:33:20;50.45;;;46.05;;
62102;SDS011;48077;48.104;11.702;2023-07-29T09:35:43;40.67;;;37.05;;
62102;SDS011;48077;48.104;11.702;2023-07-29T09:38:07;45.97;;;42.13;;
62102;SDS011;48077;48.104;11.702;2023-07-29T09:40:34;43.75;;;39.95;;
62102;SDS011;48077;48.104;11.702;2023-07-29T09:42:59;44.13;;;40.42;;
62102;SDS011;48077;48.104;11.702;2023-07-29T09:45:23;39.97;;;36.70;;
62102;SDS011;48077;48.104;11.702;2023-07-29T09:47:48;36.35;;;33.13;;
62102;SDS011;48077;48.104;11.702;2023-07-29T09:50:12;34.65;;;31.77;;
62102;SDS011;48077;48.104;11.702;2023-07-29T09:52:35;31.50;;;28.67;;
62102;SDS011;48077;48.104;11.702;2023-07-29T09:54:58;32.88;;;29.88;;
62102;SDS011;48077;48.104;11.702;2023-07-29T09:57:22;27.80;;;25.40;;
62102;SDS011;48077;48.104;11.702;2023-07-29T09:59:54;29.73;;;27.23;;
62102;SDS011;48077;48.104;11.702;2023-07-29T10:02:19;33.83;;;30.65;;
62102;SDS011;48077;48.104;11.702;2023-07-29T10:04:44;25.00;;;22.85;;
62102;SDS011;48077;48.104;11.702;2023-07-29T10:07:11;22.08;;;20.13;;
62102;SDS011;48077;48.104;11.702;2023-07-29T10:09:37;21.10;;;19.05;;
62102;SDS011;48077;48.104;11.702;2023-07-29T10:12:02;21.23;;;19.27;;
62102;SDS011;48077;48.104;11.702;2023-07-29T10:14:28;20.73;;;18.67;;
62102;SDS011;48077;48.104;11.702;2023-07-29T10:16:54;18.75;;;17.13;;
62102;SDS011;48077;48.104;11.702;2023-07-29T10:19:19;22.88;;;20.67;;
62102;SDS011;48077;48.104;11.702;2023-07-29T10:21:43;20.88;;;18.77;;
62102;SDS011;48077;48.104;11.702;2023-07-29T10:24:09;24.30;;;21.73;;
62102;SDS011;48077;48.104;11.702;2023-07-29T10:26:38;24.20;;;21.85;;
62102;SDS011;48077;48.104;11.702;2023-07-29T10:29:04;19.85;;;17.80;;
62102;SDS011;48077;48.104;11.702;2023-07-29T10:31:32;28.15;;;21.75;;
62102;SDS011;48077;48.104;11.702;2023-07-29T10:33:55;17.45;;;15.60;;
62102;SDS011;48077;48.104;11.702;2023-07-29T10:36:19;17.58;;;15.60;;
62102;SDS011;48077;48.104;11.702;2023-07-29T10:38:43;20.42;;;18.33;;
62102;SDS011;48077;48.104;11.702;2023-07-29T10:41:09;18.17;;;16.35;;
62102;SDS011;48077;48.104;11.702;2023-07-29T10:43:33;15.23;;;13.63;;
62102;SDS011;48077;48.104;11.702;2023-07-29T10:45:58;17.88;;;15.63;;
62102;SDS011;48077;48.104;11.702;2023-07-29T10:48:44;19.52;;;17.52;;
62102;SDS011;48077;48.104;11.702;2023-07-29T10:51:23;14.50;;;13.07;;
62102;SDS011;48077;48.104;11.702;2023-07-29T10:53:54;20.75;;;16.17;;
62102;SDS011;48077;48.104;11.702;2023-07-29T10:56:32;15.13;;;13.35;;
62102;SDS011;48077;48.104;11.702;2023-07-29T11:01:40;16.10;;;14.35;;
62102;SDS011;48077;48.104;11.702;2023-07-29T11:15:02;21.52;;;18.83;;
62102;SDS011;48077;48.104;11.702;2023-07-29T11:17:34;22.27;;;17.98;;
62102;SDS011;48077;48.104;11.702;2023-07-29T11:19:59;16.67;;;14.32;;
62102;SDS011;48077;48.104;11.702;2023-07-29T11:22:23;13.55;;;12.15;;
62102;SDS011;48077;48.104;11.702;2023-07-29T11:24:48;18.58;;;14.90;;
62102;SDS011;48077;48.104;11.702;2023-07-29T11:27:12;18.05;;;14.48;;
62102;SDS011;48077;48.104;11.702;2023-07-29T11:29:35;20.73;;;16.48;;
62102;SDS011;48077;48.104;11.702;2023-07-29T11:31:58;17.15;;;14.48;;
62102;SDS011;48077;48.104;11.702;2023-07-29T11:34:34;23.17;;;20.80;;
62102;SDS011;48077;48.104;11.702;2023-07-29T11:36:57;26.65;;;24.13;;
62102;SDS011;48077;48.104;11.702;2023-07-29T11:39:21;29.63;;;26.80;;
62102;SDS011;48077;48.104;11.702;2023-07-29T11:41:44;32.97;;;30.00;;
62102;SDS011;48077;48.104;11.702;2023-07-29T11:44:16;48.10;;;43.92;;
62102;SDS011;48077;48.104;11.702;2023-07-29T11:46:40;85.32;;;77.15;;
62102;SDS011;48077;48.104;11.702;2023-07-29T11:49:03;566.25;;;294.67;;
62102;SDS011;48077;48.104;11.702;2023-07-29T11:51:27;17.77;;;14.40;;
62102;SDS011;48077;48.104;11.702;2023-07-29T11:53:51;15.48;;;12.25;;
62102;SDS011;48077;48.104;11.702;2023-07-29T11:56:15;11.82;;;9.63;;
62102;SDS011;48077;48.104;11.702;2023-07-29T11:58:39;12.85;;;9.10;;
62102;SDS011;48077;48.104;11.702;2023-07-29T12:01:03;15.73;;;11.30;;
62102;SDS011;48077;48.104;11.702;2023-07-29T12:03:26;9.30;;;7.53;;
62102;SDS011;48077;48.104;11.702;2023-07-29T12:05:50;11.13;;;7.70;;
62102;SDS011;48077;48.104;11.702;2023-07-29T12:08:13;12.98;;;7.85;;
62102;SDS011;48077;48.104;11.702;2023-07-29T12:10:37;9.50;;;6.30;;
62102;SDS011;48077;48.104;11.702;2023-07-29T12:13:01;9.82;;;7.07;;
62102;SDS011;48077;48.104;11.702;2023-07-29T12:15:26;11.50;;;7.13;;
62102;SDS011;48077;48.104;11.702;2023-07-29T12:17:52;12.45;;;8.45;;
62102;SDS011;48077;48.104;11.702;2023-07-29T12:20:16;9.55;;;6.70;;
62102;SDS011;48077;48.104;11.702;2023-07-29T12:22:43;11.02;;;6.70;;
62102;SDS011;48077;48.104;11.702;2023-07-29T12:25:07;9.48;;;6.38;;
62102;SDS011;48077;48.104;11.702;2023-07-29T12:27:31;9.52;;;6.65;;
62102;SDS011;48077;48.104;11.702;2023-07-29T12:29:54;9.75;;;6.32;;
62102;SDS011;48077;48.104;11.702;2023-07-29T12:32:26;9.15;;;6.10;;
62102;SDS011;48077;48.104;11.702;2023-07-29T12:34:49;8.68;;;6.22;;
62102;SDS011;48077;48.104;11.702;2023-07-29T12:37:12;9.43;;;6.35;;
62102;SDS011;48077;48.104;11.702;2023-07-29T12:39:39;10.77;;;6.47;;
62102;SDS011;48077;48.104;11.702;2023-07-29T12:42:06;12.45;;;8.32;;
62102;SDS011;48077;48.104;11.702;2023-07-29T12:44:31;8.52;;;5.65;;
62102;SDS011;48077;48.104;11.702;2023-07-29T12:46:55;8.15;;;5.95;;
62102;SDS011;48077;48.104;11.702;2023-07-29T12:49:19;9.10;;;6.28;;
62102;SDS011;48077;48.104;11.702;2023-07-29T12:51:43;11.30;;;6.35;;
62102;SDS011;48077;48.104;11.702;2023-07-29T12:54:06;12.07;;;7.97;;
62102;SDS011;48077;48.104;11.702;2023-07-29T12:56:30;10.38;;;6.68;;
62102;SDS011;48077;48.104;11.702;2023-07-29T12:58:54;10.20;;;6.57;;
62102;SDS011;48077;48.104;11.702;2023-07-29T13:01:17;10.40;;;7.93;;
62102;SDS011;48077;48.104;11.702;2023-07-29T13:03:41;7.38;;;5.88;;
62102;SDS011;48077;48.104;11.702;2023-07-29T13:06:04;9.55;;;6.22;;
62102;SDS011;48077;48.104;11.702;2023-07-29T13:08:30;9.18;;;6.13;;
62102;SDS011;48077;48.104;11.702;2023-07-29T13:10:53;23.48;;;7.78;;
62102;SDS011;48077;48.104;11.702;2023-07-29T13:13:17;10.52;;;6.35;;
62102;SDS011;48077;48.104;11.702;2023-07-29T13:15:41;7.82;;;5.85;;
62102;SDS011;48077;48.104;11.702;2023-07-29T13:18:04;11.80;;;7.47;;
62102;SDS011;48077;48.104;11.702;2023-07-29T13:20:27;12.15;;;7.57;;
62102;SDS011;48077;48.104;11.702;2023-07-29T13:22:52;8.98;;;7.97;;
62102;SDS011;48077;48.104;11.702;2023-07-29T13:25:15;10.52;;;9.43;;
62102;SDS011;48077;48.104;11.702;2023-07-29T13:27:39;13.73;;;12.43;;
62102;SDS011;48077;48.104;11.702;2023-07-29T13:30:02;14.88;;;13.40;;
62102;SDS011;48077;48.104;11.702;2023-07-29T13:32:26;17.00;;;14.43;;
62102;SDS011;48077;48.104;11.702;2023-07-29T13:34:49;21.88;;;19.30;;
62102;SDS011;48077;48.104;11.702;2023-07-29T13:37:12;20.48;;;18.58;;
62102;SDS011;48077;48.104;11.702;2023-07-29T13:39:36;22.75;;;20.85;;
62102;SDS011;48077;48.104;11.702;2023-07-29T13:41:59;25.25;;;22.90;;
62102;SDS011;48077;48.104;11.702;2023-07-29T13:44:22;29.13;;;26.25;;
62102;SDS011;48077;48.104;11.702;2023-07-29T13:46:46;26.75;;;24.20;;
62102;SDS011;48077;48.104;11.702;2023-07-29T13:49:09;28.45;;;25.83;;
62102;SDS011;48077;48.104;11.702;2023-07-29T13:51:33;26.83;;;24.45;;
62102;SDS011;48077;48.104;11.702;2023-07-29T13:53:56;24.90;;;22.73;;
62102;SDS011;48077;48.104;11.702;2023-07-29T13:56:19;28.83;;;25.95;;
62102;SDS011;48077;48.104;11.702;2023-07-29T13:58:43;26.48;;;24.13;;
62102;SDS011;48077;48.104;11.702;2023-07-29T14:01:06;30.38;;;27.15;;
62102;SDS011;48077;48.104;11.702;2023-07-29T14:03:30;24.67;;;22.52;;
62102;SDS011;48077;48.104;11.702;2023-07-29T14:05:53;28.27;;;25.73;;
62102;SDS011;48077;48.104;11.702;2023-07-29T14:08:19;28.85;;;26.40;;
62102;SDS011;48077;48.104;11.702;2023-07-29T14:10:42;27.73;;;25.38;;
62102;SDS011;48077;48.104;11.702;2023-07-29T14:13:05;26.90;;;24.45;;